Latest Weather Observations for Innisfail Aero

IDQ60801

Issued at 10:52 pm EST Wednesday 25 May 2022 (issued every 10 minutes, with the page automatically refreshed every 10 minutes)

About weather observations | Map of weather stations | Latest weather observations for QLD | Other Formats
Station Details ID: 032197 Name: INNISFAIL AERODROME Lat: -17.56 Lon: 146.01 Height: 11.84 m
Data from the previous 72 hours. | See also: Recent months at Innisfail Aero
Date/Time
EST
Temp
°C
App
Temp
°C
Dew
Point
°C
Rel
Hum
%
Delta-T
°C
Wind Press
QNH
hPa
Press
MSL
hPa
Rain since
9am
mm
Dir  Spd
km/h
Gust
km/h
Spd
kts
Gust
kts
25/10:30pm 20.1 23.7 19.8 98 0.2 CALM 0 0 0 0 1013.7 1013.7 0.4
25/10:00pm 20.1 23.6 19.6 97 0.3 CALM 0 0 0 0 1013.9 1013.9 0.4
25/09:30pm 20.2 23.8 19.7 97 0.3 CALM 0 0 0 0 1013.9 1013.9 0.4
25/09:00pm 20.8 24.8 20.5 98 0.2 CALM 0 0 0 0 1014.1 1014.1 0.4
25/08:30pm 20.4 24.2 20.1 98 0.2 CALM 0 0 0 0 1014.2 1014.2 0.4
25/08:00pm 20.3 23.2 19.8 97 0.3 NNW 4 7 2 4 1014.0 1014.0 0.4
25/07:30pm 20.3 23.8 19.6 96 0.4 CALM 0 0 0 0 1013.7 1013.7 0.4
25/07:00pm 21.1 23.7 20.1 94 0.6 S 6 7 3 4 1013.4 1013.4 0.4
25/06:30pm 22.1 25.0 20.7 92 0.9 S 6 7 3 4 1013.3 1013.3 0.4
25/06:00pm 22.4 24.9 20.3 88 1.4 SSE 7 9 4 5 1013.2 1013.2 0.4
25/05:30pm 23.4 25.0 20.7 85 1.8 SE 13 19 7 10 1012.8 1012.8 0.4
25/05:00pm 23.9 24.7 20.6 82 2.2 SE 17 24 9 13 1012.4 1012.4 0.4
25/04:30pm 24.6 24.8 20.5 78 2.7 SE 20 28 11 15 1012.2 1012.2 0.4
25/04:00pm 25.6 26.2 21.3 77 2.8 SE 20 24 11 13 1012.3 1012.3 0.4
25/03:30pm 25.4 26.2 21.3 78 2.7 SE 19 24 10 13 1012.3 1012.3 0.4
25/03:00pm 26.1 26.7 21.1 74 3.3 SE 19 26 10 14 1012.5 1012.5 0.4
25/02:30pm 25.7 26.1 20.7 74 3.3 SE 19 26 10 14 1012.6 1012.6 0.4
25/02:00pm 25.7 25.4 20.3 72 3.5 SSE 22 28 12 15 1012.8 1012.8 0.4
25/01:30pm 25.8 26.7 21.5 77 2.9 SSE 19 24 10 13 1013.2 1013.2 0.4
25/01:00pm 25.4 26.6 22.1 82 2.2 SSE 19 24 10 13 1013.5 1013.5 0.4
25/12:30pm 24.1 25.7 22.2 89 1.3 ESE 17 20 9 11 1014.1 1014.1 0.4
25/12:00pm 24.1 25.9 21.8 87 1.5 SSE 15 22 8 12 1014.3 1014.3 0.4
25/11:30am 24.3 25.6 20.8 81 2.3 S 15 20 8 11 1014.6 1014.6 0.2
25/11:13am 25.9 28.3 22.2 80 2.5 SSE 13 24 7 13 1014.7 1014.7 0.2
25/11:00am 25.9 28.1 22.6 82 2.2 S 15 20 8 11 1015.0 1015.0 0.0
25/10:30am 24.6 25.9 20.9 80 2.4 S 15 20 8 11 1015.6 1015.6 0.0
25/10:06am 24.3 25.7 21.0 82 2.2 S 15 20 8 11 1015.9 1015.9 0.0
25/10:00am 24.3 25.8 21.2 83 2.0 SSE 15 24 8 13 1015.8 1015.8 0.0
25/09:30am 23.8 25.7 21.3 86 1.6 S 13 19 7 10 1016.0 1016.0 0.0
25/09:00am 23.3 24.9 20.8 86 1.6 SSW 13 19 7 10 1015.8 1015.8 3.6
25/08:30am 23.0 26.2 21.6 92 0.9 SSW 7 11 4 6 1015.8 1015.8 3.6
25/08:18am 22.1 25.1 20.9 93 0.8 SSW 6 9 3 5 1015.7 1015.7 3.6
25/08:00am 21.4 24.3 20.7 96 0.5 SSW 6 9 3 5 1015.5 1015.5 3.6
25/07:46am 21.1 25.0 20.4 96 0.5 CALM 0 2 0 1 1015.4 1015.4 3.6
25/07:30am 20.7 24.5 20.2 97 0.3 CALM 0 0 0 0 1015.2 1015.2 3.6
25/07:00am 20.1 23.7 19.8 98 0.2 CALM 0 0 0 0 1015.0 1015.0 3.6
25/06:30am 19.9 22.3 19.6 98 0.2 N 6 7 3 4 1014.5 1014.5 3.6
25/06:00am 20.1 23.6 19.6 97 0.3 CALM 0 0 0 0 1014.3 1014.3 3.6
25/05:30am 20.5 24.1 19.8 96 0.4 CALM 0 0 0 0 1014.3 1014.3 3.6
25/05:00am 20.7 23.7 20.0 96 0.4 WSW 4 9 2 5 1013.9 1013.9 3.6
25/04:30am 20.6 22.6 19.9 96 0.4 W 9 11 5 6 1014.0 1014.0 3.6
25/04:00am 20.4 24.2 20.1 98 0.2 CALM 0 7 0 4 1013.9 1013.9 3.6
25/03:30am 20.2 23.5 19.9 98 0.2 SSE 2 6 1 3 1013.9 1013.9 3.6
25/03:00am 20.3 24.0 20.0 98 0.2 CALM 0 4 0 2 1014.0 1014.0 3.6
25/02:30am 20.6 23.0 20.1 97 0.3 W 7 7 4 4 1014.4 1014.4 3.6
25/02:00am 20.7 22.8 20.2 97 0.3 SW 9 11 5 6 1014.6 1014.6 3.6
25/01:30am 20.9 23.6 20.6 98 0.2 WSW 7 9 4 5 1014.9 1014.9 3.6
25/01:00am 20.6 23.3 20.3 98 0.2 NW 6 7 3 4 1014.8 1014.8 3.6
25/12:30am 20.8 24.8 20.6 99 0.1 CALM 0 0 0 0 1015.2 1015.2 3.6
25/12:00am 20.6 23.3 20.3 98 0.2 NW 6 6 3 3 1015.5 1015.5 3.6
 
Date/Time
EST
Temp
°C
App
Temp
°C
Dew
Point
°C
Rel
Hum
%
Delta-T
°C
Wind Press
QNH
hPa
Press
MSL
hPa
Rain since
9am
mm
Dir  Spd
km/h
Gust
km/h
Spd
kts
Gust
kts
24/11:30pm 20.7 23.9 20.4 98 0.2 N 4 6 2 3 1015.7 1015.7 3.6
24/11:00pm 20.7 23.5 20.4 98 0.2 N 6 7 3 4 1016.0 1016.0 3.6
24/10:30pm 21.0 23.8 20.5 97 0.3 NNW 6 7 3 4 1016.1 1016.1 3.6
24/10:00pm 21.6 24.1 21.1 97 0.3 SW 9 9 5 5 1016.2 1016.2 3.6
24/09:30pm 21.5 24.3 20.8 96 0.5 SW 7 9 4 5 1016.3 1016.3 3.6
24/09:00pm 21.2 25.3 20.7 97 0.3 CALM 0 0 0 0 1016.3 1016.3 3.6
24/08:30pm 21.6 25.9 21.1 97 0.3 CALM 0 0 0 0 1016.2 1016.2 3.6
24/08:00pm 21.8 26.1 21.1 96 0.5 CALM 0 0 0 0 1015.9 1015.9 3.6
24/07:30pm 22.0 26.3 21.2 95 0.5 CALM 0 0 0 0 1015.6 1015.6 3.6
24/07:00pm 22.0 24.9 21.0 94 0.7 WSW 7 7 4 4 1015.0 1015.0 3.6
24/06:30pm 22.6 27.0 21.4 93 0.8 CALM 0 6 0 3 1014.8 1014.8 3.6
24/06:00pm 22.9 26.0 21.0 89 1.2 S 6 7 3 4 1014.6 1014.6 3.6
24/05:30pm 23.4 25.7 20.7 85 1.8 S 9 13 5 7 1014.3 1014.3 3.6
24/05:00pm 23.8 25.4 20.7 83 2.0 SSE 13 17 7 9 1014.0 1014.0 3.6
24/04:30pm 24.1 25.1 20.2 79 2.5 SSE 15 20 8 11 1013.8 1013.8 3.6
24/04:00pm 24.6 25.5 20.9 80 2.4 SSE 17 20 9 11 1013.4 1013.4 3.6
24/03:54pm 24.5 25.7 20.6 79 2.5 SSE 15 20 8 11 1013.4 1013.4 3.6
24/03:30pm 24.4 25.2 20.7 80 2.4 SE 17 20 9 11 1013.3 1013.3 3.6
24/03:19pm 24.4 25.3 20.9 81 2.3 SE 17 22 9 12 1013.3 1013.3 3.6
24/03:00pm 24.6 25.6 21.1 81 2.3 SSE 17 22 9 12 1013.3 1013.3 3.6
24/02:30pm 24.3 25.4 21.2 83 2.0 SSE 17 24 9 13 1013.8 1013.8 3.6
24/02:00pm 24.3 24.8 21.2 83 2.0 SSE 20 26 11 14 1013.8 1013.8 3.6
24/01:36pm 24.4 25.2 21.7 85 1.8 SSE 20 30 11 16 1013.8 1013.8 3.6
24/01:30pm 24.5 26.3 21.8 85 1.8 SSE 15 30 8 16 1013.8 1013.8 3.6
24/01:00pm 23.8 26.5 22.2 91 1.1 S 11 17 6 9 1014.2 1014.2 3.6
24/12:30pm 22.7 24.4 21.7 94 0.7 S 15 22 8 12 1014.8 1014.8 3.4
24/12:00pm 23.4 26.6 22.4 94 0.7 S 9 17 5 9 1015.1 1015.1 3.2
24/11:51am 23.1 27.2 22.3 95 0.5 S 4 7 2 4 1015.1 1015.1 3.2
24/11:30am 22.8 25.8 22.0 95 0.5 SW 9 11 5 6 1015.3 1015.3 3.0
24/11:20am 22.9 26.0 22.1 95 0.5 W 9 13 5 7 1015.3 1015.3 2.4
24/11:17am 22.8 25.8 22.0 95 0.5 W 9 13 5 7 1015.3 1015.3 2.4
24/11:00am 22.8 25.7 21.8 94 0.7 SW 9 13 5 7 1015.5 1015.5 1.6
24/10:46am 22.7 24.8 21.7 94 0.7 SSW 13 19 7 10 1015.8 1015.8 1.2
24/10:30am 22.6 25.5 21.8 95 0.5 SSW 9 13 5 7 1016.0 1016.0 1.0
24/10:28am 22.5 25.4 21.7 95 0.5 SSW 9 13 5 7 1016.0 1016.0 1.0
24/10:15am 22.5 25.0 21.7 95 0.5 SSW 11 17 6 9 1016.1 1016.1 0.8
24/10:00am 22.5 24.5 21.5 94 0.7 SSE 13 20 7 11 1016.1 1016.1 0.8
24/09:58am 22.7 24.8 21.7 94 0.7 S 13 20 7 11 1016.1 1016.1 0.6
24/09:51am 23.0 25.8 21.6 92 0.9 SW 9 13 5 7 1016.1 1016.1 0.0
24/09:30am 22.9 25.7 21.5 92 0.9 SW 9 15 5 8 1016.1 1016.1 0.0
24/09:00am 22.4 25.2 21.6 95 0.5 SW 9 17 5 9 1016.1 1016.1 47.8
24/08:30am 22.0 24.6 21.2 95 0.5 S 9 13 5 7 1015.9 1015.9 47.8
24/08:02am 21.9 23.7 21.2 96 0.5 SSW 13 17 7 9 1015.6 1015.6 47.6
24/08:00am 21.8 23.6 21.1 96 0.5 SSW 13 17 7 9 1015.6 1015.6 47.6
24/07:30am 21.8 23.7 21.3 97 0.3 SSW 13 17 7 9 1015.4 1015.4 47.4
24/07:00am 21.7 23.5 21.2 97 0.3 SSE 13 19 7 10 1015.2 1015.2 47.4
24/06:30am 21.5 25.8 21.2 98 0.2 CALM 0 0 0 0 1015.0 1015.0 47.4
24/06:01am 21.3 25.5 21.0 98 0.2 CALM 0 0 0 0 1014.7 1014.7 47.4
24/06:00am 21.3 25.4 20.8 97 0.3 CALM 0 0 0 0 1014.7 1014.7 47.4
24/05:30am 21.4 25.2 20.9 97 0.3 W 2 6 1 3 1014.4 1014.4 47.2
24/05:03am 21.3 23.7 20.8 97 0.3 WSW 9 13 5 7 1014.2 1014.2 47.2
24/05:00am 21.3 24.1 20.8 97 0.3 WSW 7 11 4 6 1014.2 1014.2 47.2
24/04:49am 21.3 24.1 20.8 97 0.3 SSW 7 9 4 5 1014.3 1014.3 47.2
24/04:40am 21.4 24.2 20.9 97 0.3 SSW 7 11 4 6 1014.4 1014.4 47.0
24/04:33am 21.4 24.2 20.9 97 0.3 SSW 7 7 4 4 1014.4 1014.4 47.0
24/04:30am 21.4 24.4 20.9 97 0.3 SSW 6 7 3 4 1014.4 1014.4 47.0
24/04:00am 21.4 24.4 20.9 97 0.3 WSW 6 9 3 5 1014.3 1014.3 47.0
24/03:30am 21.4 22.7 20.9 97 0.3 SSW 15 19 8 10 1014.0 1014.0 46.8
24/03:18am 21.5 23.0 21.2 98 0.2 SW 15 19 8 10 1014.0 1014.0 46.8
24/03:12am 21.5 23.7 21.2 98 0.2 SW 11 15 6 8 1014.0 1014.0 46.8
24/03:00am 21.6 24.8 21.3 98 0.2 S 6 7 3 4 1014.2 1014.2 46.8
24/02:30am 21.6 26.0 21.3 98 0.2 CALM 0 0 0 0 1014.5 1014.5 45.0
24/02:21am 21.7 26.1 21.4 98 0.2 CALM 0 0 0 0 1014.5 1014.5 44.8
24/02:00am 21.7 26.1 21.4 98 0.2 CALM 0 0 0 0 1014.6 1014.6 44.2
24/01:30am 21.6 26.0 21.3 98 0.2 CALM 0 0 0 0 1014.7 1014.7 44.2
24/01:03am 21.6 24.6 21.3 98 0.2 SSW 7 9 4 5 1014.9 1014.9 43.8
24/01:00am 21.6 24.6 21.3 98 0.2 SW 7 9 4 5 1014.9 1014.9 43.6
24/12:54am 21.6 24.6 21.3 98 0.2 SW 7 9 4 5 1014.9 1014.9 43.4
24/12:30am 21.5 24.5 21.2 98 0.2 SSW 7 11 4 6 1015.3 1015.3 43.2
24/12:27am 21.5 24.1 21.2 98 0.2 SW 9 11 5 6 1015.3 1015.3 43.2
24/12:22am 21.5 24.1 21.2 98 0.2 SW 9 11 5 6 1015.3 1015.3 42.8
24/12:00am 21.6 24.6 21.3 98 0.2 SSE 7 13 4 7 1015.4 1015.4 40.0
 
Date/Time
EST
Temp
°C
App
Temp
°C
Dew
Point
°C
Rel
Hum
%
Delta-T
°C
Wind Press
QNH
hPa
Press
MSL
hPa
Rain since
9am
mm
Dir  Spd
km/h
Gust
km/h
Spd
kts
Gust
kts
23/11:44pm 21.7 23.5 21.2 97 0.3 E 13 20 7 11 1015.4 1015.4 35.4
23/11:30pm 22.1 25.6 21.8 98 0.2 E 6 15 3 8 1015.4 1015.4 29.6
23/11:00pm 22.1 25.4 21.8 98 0.2 N 7 9 4 5 1015.6 1015.6 20.8
23/10:45pm 22.2 24.3 21.7 97 0.3 NNE 13 17 7 9 1015.5 1015.5 14.6
23/10:30pm 22.1 25.0 21.8 98 0.2 NNE 9 11 5 6 1015.6 1015.6 12.0
23/10:00pm 22.2 26.4 21.7 97 0.3 WNW 2 9 1 5 1015.7 1015.7 12.0
23/09:54pm 22.2 26.8 21.7 97 0.3 CALM 0 0 0 0 1015.7 1015.7 12.0
23/09:34pm 22.3 25.5 21.6 96 0.5 WSW 7 9 4 5 1015.6 1015.6 11.0
23/09:30pm 22.3 25.5 21.6 96 0.5 WSW 7 9 4 5 1015.7 1015.7 10.2
23/09:16pm 22.2 25.0 21.5 96 0.5 WSW 9 11 5 6 1015.8 1015.8 9.6
23/09:13pm 22.2 25.0 21.5 96 0.5 WSW 9 13 5 7 1015.8 1015.8 9.6
23/09:05pm 22.2 24.6 21.5 96 0.5 W 11 13 6 7 1015.9 1015.9 9.4
23/09:00pm 22.2 24.2 21.5 96 0.5 WSW 13 17 7 9 1015.9 1015.9 9.0
23/08:39pm 22.4 24.7 21.4 94 0.7 SW 11 15 6 8 1016.0 1016.0 2.2
23/08:30pm 22.8 25.5 21.4 92 0.9 SW 9 13 5 7 1016.0 1016.0 0.0
23/08:04pm 23.1 25.8 21.4 90 1.1 WSW 9 11 5 6 1015.8 1015.8 0.0
23/08:00pm 23.2 26.2 21.3 89 1.2 SW 7 11 4 6 1015.7 1015.7 0.0
23/07:30pm 23.3 26.0 21.4 89 1.3 SSW 9 11 5 6 1015.4 1015.4 0.0
23/07:28pm 23.3 26.0 21.4 89 1.3 SSW 9 11 5 6 1015.4 1015.4 0.0
23/07:13pm 23.4 26.4 21.3 88 1.4 SSW 7 9 4 5 1015.3 1015.3 0.0
23/07:00pm 23.3 26.0 21.4 89 1.2 S 9 11 5 6 1015.2 1015.2 0.0
23/06:56pm 23.2 26.0 21.5 90 1.1 SSW 9 11 5 6 1015.1 1015.1 0.0
23/06:30pm 23.6 26.3 21.3 87 1.5 S 9 11 5 6 1014.7 1014.7 0.0
23/06:00pm 23.9 25.4 21.2 85 1.8 SSE 15 20 8 11 1014.6 1014.6 0.0
23/05:30pm 24.2 25.2 21.1 83 2.0 SSE 17 20 9 11 1014.4 1014.4 0.0
23/05:00pm 24.7 24.8 21.2 81 2.3 SE 22 28 12 15 1014.1 1014.1 0.0
23/04:30pm 24.7 25.2 20.8 79 2.6 SE 19 24 10 13 1013.8 1013.8 0.0
23/04:00pm 25.7 26.2 21.1 76 3.0 SE 20 30 11 16 1013.5 1013.5 0.0
23/03:30pm 25.5 25.8 20.7 75 3.1 SSE 20 30 11 16 1013.4 1013.4 0.0
23/03:00pm 26.0 26.0 21.0 74 3.3 SSE 22 30 12 16 1013.2 1013.2 0.0
23/02:30pm 26.7 26.8 21.2 72 3.6 SE 22 28 12 15 1013.5 1013.5 0.0
23/02:00pm 26.5 26.3 21.3 73 3.4 SE 24 30 13 16 1013.8 1013.8 0.0
23/01:30pm 26.2 26.5 20.8 72 3.6 SSE 20 26 11 14 1014.3 1014.3 0.0
23/01:00pm 26.2 26.1 20.8 72 3.6 SSE 22 28 12 15 1014.6 1014.6 0.0
23/12:30pm 26.3 26.6 20.8 71 3.6 SSE 20 26 11 14 1015.0 1015.0 0.0
23/12:00pm 26.1 26.3 21.3 75 3.2 SSE 22 28 12 15 1015.0 1015.0 0.0
23/11:30am 26.0 26.5 21.2 75 3.2 SSE 20 26 11 14 1015.2 1015.2 0.0
23/11:00am 25.8 26.1 21.5 77 2.9 SSE 22 32 12 17 1015.4 1015.4 0.0
23/10:30am 25.2 24.8 20.9 77 2.8 SSE 24 32 13 17 1015.9 1015.9 0.0
23/10:00am 25.4 25.8 20.9 76 3.0 SSE 20 28 11 15 1016.1 1016.1 0.0
23/09:30am 24.7 25.6 20.8 79 2.6 SSE 17 24 9 13 1016.2 1016.2 0.0
23/09:00am 24.5 25.3 20.6 79 2.5 S 17 24 9 13 1016.0 1016.0 0.0
23/08:30am 23.3 25.1 20.4 84 1.9 SSW 11 13 6 7 1015.9 1015.9 0.0
23/08:00am 22.4 25.5 21.0 92 0.9 SSW 6 7 3 4 1015.7 1015.7 0.0
23/07:30am 21.1 24.5 20.1 94 0.6 SW 2 7 1 4 1015.4 1015.4 0.0
23/07:00am 20.3 23.8 19.5 95 0.5 CALM 0 4 0 2 1014.9 1014.9 0.0
23/06:30am 20.2 23.5 19.2 94 0.6 CALM 0 0 0 0 1014.5 1014.5 0.0
23/06:00am 20.7 22.9 19.2 91 0.9 SW 6 7 3 4 1014.0 1014.0 0.0
23/05:30am 21.1 23.3 19.6 91 1.0 WSW 7 9 4 5 1013.9 1013.9 0.0
23/05:00am 21.0 23.5 19.8 93 0.8 WSW 6 7 3 4 1013.7 1013.7 0.0
23/04:30am 21.0 23.3 19.8 93 0.8 SW 7 9 4 5 1013.4 1013.4 0.0
23/04:00am 21.2 25.1 20.4 95 0.5 CALM 0 0 0 0 1013.4 1013.4 0.0
23/03:30am 21.1 24.6 20.3 95 0.5 SSW 2 7 1 4 1013.5 1013.5 0.0
23/03:00am 21.1 24.9 20.1 94 0.6 CALM 0 0 0 0 1013.3 1013.3 0.0
23/02:30am 21.3 25.2 20.3 94 0.6 CALM 0 0 0 0 1013.5 1013.5 0.0
23/02:00am 21.1 25.0 20.4 96 0.5 CALM 0 0 0 0 1013.7 1013.7 0.0
23/01:30am 21.1 24.9 20.1 94 0.6 CALM 0 0 0 0 1013.7 1013.7 0.0
23/01:00am 21.0 24.8 20.2 95 0.5 CALM 0 0 0 0 1014.0 1014.0 0.0
23/12:30am 21.4 25.2 20.2 93 0.8 CALM 0 0 0 0 1013.9 1013.9 0.0
23/12:00am 21.5 25.3 20.1 92 0.9 CALM 0 0 0 0 1014.2 1014.2 0.0
 
Date/Time
EST
Temp
°C
App
Temp
°C
Dew
Point
°C
Rel
Hum
%
Delta-T
°C
Wind Press
QNH
hPa
Press
MSL
hPa
Rain since
9am
mm
Dir  Spd
km/h
Gust
km/h
Spd
kts
Gust
kts
22/11:30pm 21.7 25.4 20.0 90 1.1 CALM 0 0 0 0 1014.4 1014.4 0.0
22/11:00pm 22.0 24.4 19.7 87 1.5 SW 6 9 3 5 1014.7 1014.7 0.0

Other formats

Comma delimited format used in spreadsheet applications
http://www.bom.gov.au/fwo/IDQ60801/IDQ60801.94280.axf

JavaScript Object Notation format (JSON) in row-major order
http://www.bom.gov.au/fwo/IDQ60801/IDQ60801.94280.json

Data quality

Most of these data are generated automatically and are frequently updated. Quality checks on data are not normally performed. It is possible for incorrect values to appear. Refer to information at About Latest Weather Observations and please check the disclaimer before using these data.